Time;durP1;ratioP1;P1;durP2;ratioP2;P2;SDS_P1;SDS_P2;PMS_P1;PMS_P2;Temp;Humidity;BMP_temperature;BMP_pressure;BME280_temperature;BME280_humidity;BME280_pressure;Samples;Min_cycle;Max_cycle;Signal;HPM_P1;HPM_P2
2021/01/02 00:00:10;;;;;;;29.23;16.30;;;7.20;69.50;;;;;;5016261;28;20211;-92
2021/01/02 00:12:36;;;;;;;29.55;15.57;;;6.90;69.90;;;;;;5049177;23;20238;-92
2021/01/02 00:18:36;;;;;;;34.33;18.48;;;6.90;70.00;;;;;;5022216;28;20195;-92
2021/01/02 00:27:40;;;;;;;29.17;16.70;;;6.90;70.10;;;;;;5002623;28;20167;-90
2021/01/02 00:52:45;;;;;;;32.28;15.60;;;6.90;70.30;;;;;;5092555;23;20273;-91
2021/01/02 01:08:09;;;;;;;36.80;16.00;;;7.00;70.20;;;;;;5069910;23;20326;-91
2021/01/02 01:10:37;;;;;;;34.33;17.55;;;6.90;70.20;;;;;;5018669;28;20206;-92
2021/01/02 01:22:59;;;;;;;28.88;15.60;;;7.00;70.70;;;;;;5019705;28;20236;-93
2021/01/02 01:25:45;;;;;;;32.57;15.57;;;6.90;70.50;;;;;;5018254;28;20171;-92
2021/01/02 01:37:48;;;;;;;32.55;16.58;;;6.70;71.50;;;;;;5046484;23;20249;-91
2021/01/02 01:40:22;;;;;;;31.10;17.45;;;6.80;71.30;;;;;;5019005;28;20214;-91
2021/01/02 01:43:01;;;;;;;34.65;16.83;;;6.80;70.90;;;;;;5018909;28;20180;-90
2021/01/02 02:02:11;;;;;;;29.35;15.18;;;7.20;69.30;;;;;;5019331;28;20214;-91
2021/01/02 02:08:23;;;;;;;37.53;17.17;;;7.00;69.20;;;;;;5019230;28;20154;-92
2021/01/02 02:46:11;;;;;;;32.55;15.82;;;6.60;71.50;;;;;;5017450;28;20236;-91
2021/01/02 03:05:30;;;;;;;27.88;15.23;;;6.80;70.70;;;;;;5014881;28;20159;-92
2021/01/02 03:07:56;;;;;;;30.48;17.50;;;6.80;70.60;;;;;;5015626;28;20179;-91
2021/01/02 03:13:26;;;;;;;30.85;16.65;;;6.90;70.30;;;;;;5017949;28;20278;-91
2021/01/02 03:15:52;;;;;;;36.00;17.00;;;6.80;70.40;;;;;;5018154;28;20214;-93
2021/01/02 03:18:23;;;;;;;35.43;18.20;;;6.90;70.60;;;;;;5018206;28;20175;-92
2021/01/02 03:20:49;;;;;;;37.38;17.38;;;7.00;70.30;;;;;;5017920;28;20207;-92
2021/01/02 03:23:16;;;;;;;30.60;17.10;;;6.80;70.00;;;;;;5018236;28;20190;-92
2021/01/02 03:25:41;;;;;;;33.85;17.85;;;7.00;69.80;;;;;;5018180;28;20171;-92
2021/01/02 03:28:07;;;;;;;42.97;18.00;;;7.00;69.70;;;;;;5017360;28;20190;-91
2021/01/02 03:30:33;;;;;;;35.73;16.50;;;7.00;69.30;;;;;;5016677;28;20207;-92
2021/01/02 03:32:58;;;;;;;33.57;16.23;;;6.90;69.50;;;;;;5017062;28;20415;-91
2021/01/02 03:35:24;;;;;;;34.17;18.03;;;7.00;69.50;;;;;;5017226;28;20180;-92
2021/01/02 03:37:50;;;;;;;28.77;14.80;;;6.80;69.40;;;;;;5020761;28;20159;-92
2021/01/02 03:40:17;;;;;;;33.27;17.63;;;6.90;69.60;;;;;;5021952;28;20206;-92
2021/01/02 03:42:45;;;;;;;32.05;16.70;;;6.90;69.60;;;;;;5021869;28;20183;-90
2021/01/02 03:45:15;;;;;;;33.72;16.83;;;6.80;69.40;;;;;;5021068;28;20182;-91
2021/01/02 04:53:12;;;;;;;31.15;15.93;;;6.40;70.60;;;;;;5085608;23;20229;-91
2021/01/02 09:05:39;;;;;;;40.08;19.65;;;6.90;73.20;;;;;;5010232;28;20211;-88
2021/01/02 09:11:21;;;;;;;44.50;18.95;;;6.80;72.30;;;;;;5054383;23;20238;-88
2021/01/02 09:13:47;;;;;;;35.53;19.60;;;6.70;72.70;;;;;;5010349;28;20205;-87
2021/01/02 09:16:15;;;;;;;40.40;20.40;;;6.90;72.60;;;;;;5007179;28;20260;-87
2021/01/02 09:18:50;;;;;;;38.85;18.70;;;6.90;72.20;;;;;;5000863;28;20469;-89
2021/01/02 09:21:17;;;;;;;39.80;18.42;;;7.10;72.40;;;;;;5012894;28;20218;-92
2021/01/02 09:23:44;;;;;;;32.85;19.42;;;7.00;71.60;;;;;;5013249;28;20156;-91
2021/01/02 09:26:37;;;;;;;42.50;19.73;;;6.90;72.10;;;;;;4997783;28;20227;-91
2021/01/02 09:29:23;;;;;;;39.08;19.33;;;7.00;72.00;;;;;;4997591;28;20227;-91
2021/01/02 09:31:49;;;;;;;33.35;17.63;;;7.10;72.00;;;;;;5000493;28;20173;-94
2021/01/02 09:34:15;;;;;;;36.47;18.37;;;7.10;71.80;;;;;;5000003;28;20244;-93
2021/01/02 09:36:41;;;;;;;37.90;20.03;;;7.10;71.80;;;;;;5000490;28;20428;-92
2021/01/02 09:39:07;;;;;;;38.73;19.50;;;7.00;71.80;;;;;;4999003;28;20473;-93
2021/01/02 09:41:34;;;;;;;29.52;16.25;;;7.00;71.90;;;;;;4999938;28;20494;-93
2021/01/02 09:44:00;;;;;;;37.17;18.35;;;7.00;71.60;;;;;;4999840;28;20168;-92
2021/01/02 09:46:28;;;;;;;45.10;16.45;;;7.10;72.00;;;;;;4999641;28;20187;-92
2021/01/02 09:48:55;;;;;;;34.60;18.33;;;7.20;71.70;;;;;;4998711;28;20206;-94
2021/01/02 09:51:25;;;;;;;35.70;18.90;;;7.40;71.10;;;;;;4995417;28;20203;-93
2021/01/02 09:53:51;;;;;;;35.35;19.42;;;7.60;70.50;;;;;;4993989;28;20183;-94
2021/01/02 09:56:18;;;;;;;44.83;19.60;;;7.70;70.20;;;;;;4994265;28;20176;-93
2021/01/02 09:58:44;;;;;;;41.50;20.40;;;7.70;70.20;;;;;;5010271;28;20255;-93
2021/01/02 10:01:14;;;;;;;33.38;17.90;;;7.70;69.90;;;;;;5014516;28;20238;-93
2021/01/02 10:03:40;;;;;;;30.88;18.05;;;7.60;69.90;;;;;;5015951;28;20186;-93
2021/01/02 10:06:05;;;;;;;41.33;18.87;;;7.80;70.20;;;;;;5012932;28;20218;-94
2021/01/02 10:08:31;;;;;;;39.00;20.10;;;8.00;69.90;;;;;;4993957;28;20180;-94
2021/01/02 10:10:57;;;;;;;32.10;17.40;;;8.00;69.70;;;;;;4990415;28;20242;-93
2021/01/02 10:13:23;;;;;;;34.73;17.97;;;8.10;69.60;;;;;;4993832;28;20430;-93
2021/01/02 10:15:49;;;;;;;31.20;17.70;;;8.30;68.80;;;;;;4980665;28;20456;-92
2021/01/02 10:18:15;;;;;;;33.77;18.40;;;8.10;68.50;;;;;;4979368;28;20415;-92
2021/01/02 10:20:41;;;;;;;37.35;17.02;;;8.00;69.00;;;;;;4980161;28;20687;-92
2021/01/02 10:23:08;;;;;;;29.92;16.85;;;8.20;68.90;;;;;;4980643;28;20218;-92
2021/01/02 10:25:34;;;;;;;32.30;18.05;;;8.10;68.00;;;;;;4980249;28;20180;-92
2021/01/02 10:28:04;;;;;;;38.45;18.20;;;8.10;67.80;;;;;;5001461;28;20194;-92
2021/01/02 10:30:30;;;;;;;39.17;19.67;;;8.10;68.20;;;;;;5013982;28;20217;-94
2021/01/02 10:32:56;;;;;;;38.57;18.93;;;8.10;68.90;;;;;;5016927;28;20191;-92
2021/01/02 10:35:22;;;;;;;33.27;16.93;;;8.20;68.70;;;;;;5012368;28;20486;-93
2021/01/02 10:37:56;;;;;;;37.97;16.57;;;8.20;69.20;;;;;;5014925;28;20418;-92
2021/01/02 10:40:22;;;;;;;41.10;17.85;;;8.50;69.10;;;;;;5016692;28;20421;-94
2021/01/02 10:42:48;;;;;;;35.63;17.25;;;8.60;68.20;;;;;;5014544;28;20203;-94
2021/01/02 10:45:16;;;;;;;35.13;18.00;;;8.60;68.10;;;;;;5011209;28;20273;-93
2021/01/02 10:47:46;;;;;;;41.10;19.13;;;8.50;68.30;;;;;;5009720;28;20195;-95
2021/01/02 10:50:13;;;;;;;42.47;19.58;;;8.50;68.30;;;;;;5013116;28;20290;-94
2021/01/02 10:52:39;;;;;;;34.50;18.08;;;8.20;68.90;;;;;;5016563;28;20269;-95
2021/01/02 10:55:05;;;;;;;31.88;18.77;;;8.40;69.10;;;;;;5011714;28;20259;-94
2021/01/02 10:57:31;;;;;;;39.03;19.65;;;8.60;68.50;;;;;;5008580;28;20247;-93
2021/01/02 10:59:57;;;;;;;36.50;17.87;;;8.50;68.70;;;;;;5003761;28;20204;-94
2021/01/02 11:02:24;;;;;;;29.15;19.27;;;8.50;69.00;;;;;;4994257;28;20207;-94
2021/01/02 11:04:51;;;;;;;42.70;20.52;;;8.80;68.80;;;;;;4984831;28;20187;-94
2021/01/02 11:07:17;;;;;;;32.65;17.50;;;8.90;67.10;;;;;;4984880;28;20180;-94
2021/01/02 11:09:45;;;;;;;34.20;16.70;;;8.90;66.70;;;;;;4985860;28;20749;-94
2021/01/02 11:12:11;;;;;;;38.55;17.38;;;9.00;66.90;;;;;;5019054;28;20854;-94
2021/01/02 11:14:40;;;;;;;29.60;16.13;;;9.20;67.10;;;;;;5025676;28;20178;-94
2021/01/02 11:17:07;;;;;;;34.40;16.35;;;9.20;66.60;;;;;;5022885;28;20426;-94
2021/01/02 11:19:33;;;;;;;30.73;16.55;;;9.10;66.70;;;;;;5026130;28;20657;-94
2021/01/02 11:22:01;;;;;;;34.70;17.02;;;9.00;67.00;;;;;;5027105;28;20238;-93
2021/01/02 11:24:32;;;;;;;29.25;17.67;;;9.10;67.20;;;;;;5034537;28;20217;-94
2021/01/02 11:27:00;;;;;;;34.15;17.77;;;9.30;67.40;;;;;;5033159;28;20182;-94
2021/01/02 11:29:28;;;;;;;39.53;19.20;;;9.40;67.30;;;;;;5029474;28;20203;-93
2021/01/02 11:31:55;;;;;;;35.80;17.83;;;9.60;67.10;;;;;;5021422;28;20178;-91
2021/01/02 11:34:22;;;;;;;33.30;16.20;;;9.60;66.70;;;;;;5013248;28;20264;-90
2021/01/02 11:36:59;;;;;;;31.88;17.15;;;9.70;66.10;;;;;;5013837;28;20175;-92
2021/01/02 11:39:25;;;;;;;30.35;18.13;;;9.70;65.80;;;;;;5017053;28;20198;-94
2021/01/02 11:41:52;;;;;;;39.80;18.13;;;9.70;65.80;;;;;;5023471;28;20211;-94
2021/01/02 11:44:21;;;;;;;39.78;17.05;;;9.70;65.80;;;;;;5019339;28;20179;-94
2021/01/02 11:46:49;;;;;;;30.60;17.90;;;9.50;65.40;;;;;;5001689;28;20176;-93
2021/01/02 11:49:18;;;;;;;32.88;17.67;;;9.50;65.50;;;;;;5003278;28;20203;-94
2021/01/02 11:51:52;;;;;;;30.40;16.67;;;9.40;65.60;;;;;;5007067;28;20176;-94
2021/01/02 11:54:18;;;;;;;41.88;18.88;;;9.40;66.10;;;;;;5004982;28;20229;-93
2021/01/02 11:56:45;;;;;;;33.88;17.60;;;9.10;66.40;;;;;;5007347;28;20183;-93
2021/01/02 11:59:11;;;;;;;30.15;18.30;;;9.20;66.90;;;;;;5020096;28;20212;-95
2021/01/02 12:01:43;;;;;;;44.08;19.02;;;9.20;67.20;;;;;;5021771;28;20213;-95
2021/01/02 12:04:10;;;;;;;37.60;18.75;;;9.30;67.30;;;;;;5021709;28;20167;-94
2021/01/02 12:06:36;;;;;;;43.95;19.70;;;9.40;67.50;;;;;;5021220;28;20167;-94
2021/01/02 12:09:07;;;;;;;38.70;18.97;;;9.50;66.90;;;;;;5015261;28;20579;-91
2021/01/02 12:11:36;;;;;;;39.30;19.35;;;9.40;66.30;;;;;;5013938;28;20522;-91
2021/01/02 12:14:04;;;;;;;35.55;20.48;;;9.10;66.40;;;;;;5014608;28;20270;-90
2021/01/02 12:16:42;;;;;;;35.00;17.65;;;8.90;67.00;;;;;;5018917;28;20207;-90
2021/01/02 12:19:11;;;;;;;33.33;19.88;;;8.70;67.80;;;;;;5016580;28;20203;-90
2021/01/02 12:21:36;;;;;;;36.83;20.08;;;8.50;68.40;;;;;;5016975;28;20270;-91
2021/01/02 12:24:03;;;;;;;41.63;19.27;;;8.40;68.90;;;;;;5018676;28;20183;-90
2021/01/02 12:26:29;;;;;;;40.97;20.67;;;8.50;69.40;;;;;;5018681;28;20426;-91
2021/01/02 12:28:55;;;;;;;36.03;18.20;;;8.80;69.50;;;;;;5017804;28;20218;-91
2021/01/02 12:31:26;;;;;;;36.95;20.33;;;8.80;69.10;;;;;;5017887;28;20438;-92
2021/01/02 12:33:52;;;;;;;43.08;20.80;;;8.90;68.80;;;;;;5006451;28;20179;-93
2021/01/02 12:36:28;;;;;;;42.08;21.33;;;8.80;68.80;;;;;;5005166;28;20175;-93
2021/01/02 12:38:54;;;;;;;46.90;21.45;;;8.80;69.10;;;;;;5000719;28;20183;-92
2021/01/02 12:41:20;;;;;;;39.13;20.93;;;8.70;69.20;;;;;;4999433;28;20207;-92
2021/01/02 12:43:46;;;;;;;50.38;23.80;;;8.80;69.10;;;;;;4999646;28;20210;-91
2021/01/02 12:46:12;;;;;;;47.10;22.43;;;8.30;70.20;;;;;;4999970;28;20183;-91
2021/01/02 12:48:41;;;;;;;46.60;23.67;;;8.20;70.60;;;;;;4999063;28;20442;-91
2021/01/02 12:51:07;;;;;;;50.70;23.88;;;8.40;70.70;;;;;;5002890;28;20549;-91
2021/01/02 12:53:37;;;;;;;41.58;22.17;;;8.60;70.00;;;;;;5000723;28;20203;-91
2021/01/02 12:56:04;;;;;;;48.53;24.95;;;8.60;69.90;;;;;;4998732;28;20194;-92
2021/01/02 12:58:29;;;;;;;47.90;23.75;;;8.80;69.60;;;;;;4996465;28;20183;-92
2021/01/02 13:00:56;;;;;;;44.90;22.70;;;9.00;69.20;;;;;;4998520;28;20215;-93
2021/01/02 13:03:22;;;;;;;50.67;24.88;;;9.10;69.10;;;;;;4997737;28;20414;-93
2021/01/02 13:05:48;;;;;;;50.47;25.30;;;9.10;69.20;;;;;;4998310;28;20257;-92
2021/01/02 13:08:13;;;;;;;50.97;24.97;;;9.20;68.90;;;;;;5001596;28;20179;-92
2021/01/02 13:10:39;;;;;;;51.77;24.10;;;9.30;68.60;;;;;;4997347;28;20219;-93
2021/01/02 13:13:08;;;;;;;50.57;25.57;;;9.00;68.70;;;;;;4997965;28;20179;-93
2021/01/02 13:15:34;;;;;;;46.17;23.48;;;9.10;68.80;;;;;;4998897;28;20186;-93
2021/01/02 13:18:01;;;;;;;44.42;22.88;;;9.30;68.80;;;;;;5005576;28;20188;-93
2021/01/02 13:20:27;;;;;;;63.90;23.50;;;9.50;68.30;;;;;;5003389;28;20199;-93
2021/01/02 13:22:52;;;;;;;46.87;24.60;;;9.60;67.30;;;;;;5004989;28;20253;-93
2021/01/02 13:25:19;;;;;;;51.83;23.60;;;9.60;67.10;;;;;;5004345;28;20411;-92
2021/01/02 13:27:45;;;;;;;51.45;23.65;;;9.60;66.80;;;;;;5005831;28;20202;-94
2021/01/02 13:30:12;;;;;;;54.28;24.60;;;9.60;66.80;;;;;;5003863;28;20597;-94
2021/01/02 13:32:38;;;;;;;45.35;22.85;;;9.60;66.70;;;;;;4997864;28;20183;-94
2021/01/02 13:35:05;;;;;;;50.53;23.97;;;9.60;66.60;;;;;;4999148;28;20286;-93
2021/01/02 13:37:31;;;;;;;47.60;23.90;;;9.60;66.90;;;;;;5012310;28;20179;-94
2021/01/02 13:39:56;;;;;;;48.30;23.67;;;9.70;67.10;;;;;;5018855;28;20218;-94
2021/01/02 13:42:23;;;;;;;40.93;22.33;;;9.70;66.80;;;;;;5019602;28;20486;-94
2021/01/02 13:44:50;;;;;;;52.47;24.65;;;9.60;66.60;;;;;;5008253;28;20215;-95
2021/01/02 13:47:18;;;;;;;50.28;26.85;;;9.60;66.80;;;;;;5004242;28;20278;-93
2021/01/02 13:49:47;;;;;;;50.78;25.02;;;9.40;67.30;;;;;;5005113;28;20203;-93
2021/01/02 13:52:14;;;;;;;51.20;25.30;;;9.20;68.00;;;;;;5005858;28;20554;-93
2021/01/02 13:54:40;;;;;;;53.22;24.42;;;8.70;69.40;;;;;;5006172;28;20172;-94
2021/01/02 13:57:06;;;;;;;50.13;25.63;;;8.70;69.90;;;;;;4999698;28;20183;-93
2021/01/02 13:59:32;;;;;;;56.95;25.90;;;8.70;70.20;;;;;;5002421;28;20687;-92
2021/01/02 14:01:59;;;;;;;55.43;25.27;;;8.10;72.00;;;;;;5009597;28;20222;-93
2021/01/02 14:04:26;;;;;;;52.15;26.55;;;8.40;72.30;;;;;;5000379;28;20179;-94
2021/01/02 14:06:54;;;;;;;50.15;24.83;;;8.60;71.60;;;;;;4998799;28;20187;-92
2021/01/02 14:09:22;;;;;;;53.47;24.63;;;8.90;71.20;;;;;;5002572;28;20195;-94
2021/01/02 14:11:48;;;;;;;45.58;22.35;;;9.10;70.30;;;;;;5018944;28;20187;-94
2021/01/02 14:14:14;;;;;;;52.40;23.90;;;9.30;69.80;;;;;;5019056;28;20206;-94
2021/01/02 14:16:52;;;;;;;57.65;28.02;;;9.30;69.30;;;;;;5006227;28;20945;-94
2021/01/02 14:19:18;;;;;;;50.00;24.70;;;9.20;69.00;;;;;;5005703;28;20203;-93
2021/01/02 14:21:49;;;;;;;52.95;24.40;;;9.00;69.10;;;;;;5003233;28;20203;-93
2021/01/02 14:24:16;;;;;;;53.72;23.58;;;9.00;69.60;;;;;;5003770;28;20588;-94
2021/01/02 14:26:42;;;;;;;52.90;25.25;;;9.00;69.80;;;;;;5000570;28;20243;-94
2021/01/02 14:29:08;;;;;;;56.08;27.85;;;9.20;70.00;;;;;;5001759;28;20229;-94
2021/01/02 14:31:36;;;;;;;48.20;24.42;;;9.20;69.80;;;;;;5004575;28;20190;-93
2021/01/02 14:34:03;;;;;;;53.03;27.15;;;9.30;69.70;;;;;;5004231;28;20241;-93
2021/01/02 14:36:29;;;;;;;51.50;25.35;;;9.30;69.50;;;;;;5001713;28;20224;-93
2021/01/02 14:38:54;;;;;;;49.73;23.60;;;9.30;69.50;;;;;;5005507;28;20233;-93
2021/01/02 14:41:22;;;;;;;42.17;22.77;;;9.40;69.20;;;;;;5004774;28;20209;-93
2021/01/02 14:43:48;;;;;;;52.97;22.83;;;9.40;69.00;;;;;;5002475;28;20183;-94
2021/01/02 14:46:14;;;;;;;51.60;25.03;;;9.30;68.80;;;;;;5003311;28;20273;-93
2021/01/02 14:48:40;;;;;;;47.63;24.80;;;9.20;68.90;;;;;;4997494;28;20411;-93
2021/01/02 14:51:05;;;;;;;56.33;24.77;;;9.30;69.20;;;;;;5002733;28;20409;-93
2021/01/02 14:53:31;;;;;;;54.67;27.60;;;9.10;69.20;;;;;;5012194;28;20590;-93
2021/01/02 14:55:57;;;;;;;63.83;29.20;;;9.00;69.30;;;;;;5005156;28;20536;-94
2021/01/02 14:58:22;;;;;;;54.03;25.90;;;8.80;70.00;;;;;;5008889;28;20244;-96
2021/01/02 15:00:48;;;;;;;64.17;28.37;;;8.80;70.30;;;;;;5002589;28;20489;-92
2021/01/02 15:03:14;;;;;;;50.08;26.50;;;8.60;70.70;;;;;;4997501;28;20176;-92
2021/01/02 15:05:40;;;;;;;72.13;29.58;;;8.60;71.10;;;;;;4997512;28;20170;-92
2021/01/02 15:08:06;;;;;;;69.57;31.57;;;8.50;71.50;;;;;;5005323;28;20194;-95
2021/01/02 15:10:32;;;;;;;66.28;26.75;;;8.50;71.70;;;;;;5012982;28;20462;-93
2021/01/02 15:12:58;;;;;;;58.07;28.63;;;8.40;72.10;;;;;;5012624;28;20246;-94
2021/01/02 15:15:24;;;;;;;64.47;28.37;;;8.50;72.10;;;;;;5012621;28;20438;-94
2021/01/02 15:17:51;;;;;;;66.00;28.23;;;8.30;72.00;;;;;;5011700;28;20417;-93
2021/01/02 15:20:17;;;;;;;54.38;26.40;;;8.50;72.20;;;;;;5009619;28;20221;-94
2021/01/02 15:22:43;;;;;;;63.63;27.35;;;8.60;72.20;;;;;;5009197;28;20678;-94
2021/01/02 15:25:10;;;;;;;67.05;32.35;;;8.70;71.90;;;;;;5006330;28;20187;-94
2021/01/02 15:27:39;;;;;;;68.45;32.65;;;8.70;71.60;;;;;;5006886;28;20171;-94
2021/01/02 15:30:06;;;;;;;58.92;27.75;;;8.60;71.20;;;;;;5010514;28;20203;-94
2021/01/02 15:32:32;;;;;;;59.08;27.05;;;8.60;71.50;;;;;;5001592;28;20384;-93
2021/01/02 15:34:58;;;;;;;70.53;30.10;;;8.70;71.70;;;;;;5001955;28;20559;-92
2021/01/02 15:37:24;;;;;;;77.67;36.57;;;8.80;71.60;;;;;;4999005;28;20186;-92
2021/01/02 15:39:50;;;;;;;73.90;33.58;;;8.90;71.40;;;;;;4997800;28;20199;-93
2021/01/02 15:42:18;;;;;;;65.03;28.73;;;9.00;71.10;;;;;;4997633;28;20705;-92
2021/01/02 15:44:44;;;;;;;76.00;30.52;;;9.10;70.90;;;;;;4999103;28;20411;-93
2021/01/02 15:47:13;;;;;;;66.23;29.47;;;9.10;70.70;;;;;;5019720;28;20213;-93
2021/01/02 15:49:39;;;;;;;71.40;30.38;;;9.10;70.50;;;;;;5017072;28;20460;-93
2021/01/02 15:52:12;;;;;;;69.18;29.67;;;9.10;70.30;;;;;;5018775;28;20317;-93
2021/01/02 15:54:38;;;;;;;56.63;29.50;;;9.20;70.00;;;;;;5012061;28;20529;-93
2021/01/02 15:57:05;;;;;;;65.90;31.35;;;9.20;69.80;;;;;;5001470;28;20183;-92
2021/01/02 15:59:32;;;;;;;71.90;30.00;;;9.20;69.90;;;;;;4998786;28;20287;-93
2021/01/02 16:01:59;;;;;;;71.85;31.63;;;9.30;69.90;;;;;;4997990;28;20636;-93
2021/01/02 16:04:25;;;;;;;62.92;29.40;;;9.40;69.50;;;;;;5000302;28;20179;-93
2021/01/02 16:06:51;;;;;;;73.68;30.73;;;9.40;69.40;;;;;;4996690;28;20251;-93
2021/01/02 16:09:19;;;;;;;61.33;30.20;;;9.40;69.40;;;;;;4997177;28;20214;-94
2021/01/02 16:11:45;;;;;;;58.17;28.05;;;9.40;69.20;;;;;;4997420;28;20187;-93
2021/01/02 16:14:14;;;;;;;64.60;28.83;;;9.40;69.40;;;;;;4998474;28;20698;-92
2021/01/02 16:16:42;;;;;;;54.97;25.23;;;9.50;69.40;;;;;;4997378;28;20183;-93
2021/01/02 16:19:08;;;;;;;64.50;26.77;;;9.50;69.30;;;;;;4997172;28;20207;-93
2021/01/02 16:21:35;;;;;;;61.22;27.55;;;9.50;69.20;;;;;;4997764;28;20305;-93
2021/01/02 16:24:01;;;;;;;65.07;26.77;;;9.40;69.10;;;;;;4997606;28;20194;-93
2021/01/02 16:26:39;;;;;;;57.25;27.63;;;9.40;69.10;;;;;;4999010;28;20175;-91
2021/01/02 16:29:07;;;;;;;59.42;24.20;;;9.50;69.00;;;;;;4998005;28;20209;-92
2021/01/02 16:31:56;;;;;;;62.28;27.20;;;9.50;69.00;;;;;;4999012;28;20187;-92
2021/01/02 16:34:32;;;;;;;63.70;28.00;;;9.50;69.00;;;;;;4987916;28;20210;-92
2021/01/02 16:37:26;;;;;;;57.88;27.55;;;9.40;68.80;;;;;;4998109;28;20175;-92
2021/01/02 16:40:03;;;;;;;57.35;25.50;;;9.40;68.80;;;;;;5006075;28;20203;-93
2021/01/02 16:42:33;;;;;;;59.97;27.83;;;9.30;69.00;;;;;;4994028;28;20227;-93
2021/01/02 16:44:59;;;;;;;60.92;28.35;;;9.40;69.10;;;;;;4999908;28;20237;-93
2021/01/02 16:47:26;;;;;;;64.07;29.05;;;9.40;68.90;;;;;;5017144;28;20178;-93
2021/01/02 16:49:52;;;;;;;60.25;27.27;;;9.50;68.80;;;;;;5016975;28;20237;-93
2021/01/02 16:52:22;;;;;;;52.83;26.73;;;9.30;69.10;;;;;;5019992;28;20553;-93
2021/01/02 16:54:47;;;;;;;63.63;27.25;;;9.30;69.30;;;;;;5012016;28;20445;-93
2021/01/02 16:57:13;;;;;;;56.93;27.80;;;9.40;69.20;;;;;;5004721;28;20183;-93
2021/01/02 16:59:41;;;;;;;56.93;26.00;;;9.40;69.00;;;;;;4985502;28;20542;-93
2021/01/02 17:02:08;;;;;;;57.78;28.77;;;9.40;68.90;;;;;;4986041;28;20463;-92
2021/01/02 17:04:34;;;;;;;58.67;26.85;;;9.30;69.10;;;;;;4990374;28;20210;-92
2021/01/02 17:07:10;;;;;;;62.10;28.88;;;9.40;69.20;;;;;;4992224;28;20655;-93
2021/01/02 17:09:37;;;;;;;56.58;28.05;;;9.40;68.90;;;;;;4978788;28;20226;-93
2021/01/02 17:12:11;;;;;;;55.03;27.75;;;9.50;68.80;;;;;;4977887;28;20187;-93
2021/01/02 17:14:37;;;;;;;59.65;29.63;;;9.50;68.70;;;;;;4990164;28;20195;-93
2021/01/02 17:17:06;;;;;;;77.23;30.07;;;9.60;68.70;;;;;;4998391;28;20642;-93
2021/01/02 17:19:32;;;;;;;63.83;29.67;;;9.50;68.50;;;;;;4999328;28;20435;-93
2021/01/02 17:22:00;;;;;;;61.57;29.83;;;9.30;68.50;;;;;;4992209;28;20219;-92
2021/01/02 17:24:27;;;;;;;58.47;27.77;;;9.20;68.90;;;;;;4977510;28;20441;-92
2021/01/02 17:27:00;;;;;;;59.85;28.42;;;9.00;69.10;;;;;;4978430;28;20191;-92
2021/01/02 17:29:27;;;;;;;57.83;26.90;;;8.90;69.60;;;;;;4976143;28;20200;-92
2021/01/02 17:31:55;;;;;;;68.07;28.60;;;8.80;70.00;;;;;;4983727;28;20183;-91
2021/01/02 17:34:36;;;;;;;67.20;30.92;;;8.80;70.40;;;;;;4981176;28;20199;-92
2021/01/02 17:37:07;;;;;;;67.15;28.20;;;8.90;70.70;;;;;;4997420;28;20186;-92
2021/01/02 17:39:35;;;;;;;53.92;25.45;;;9.00;70.70;;;;;;5008885;28;20266;-94
2021/01/02 17:42:10;;;;;;;68.30;28.05;;;8.80;70.30;;;;;;5011615;28;20206;-94
2021/01/02 17:44:42;;;;;;;55.72;25.88;;;8.80;70.50;;;;;;5016532;28;20187;-94
2021/01/02 17:47:10;;;;;;;49.50;24.70;;;8.90;70.80;;;;;;4988735;28;20169;-94
2021/01/02 17:49:36;;;;;;;47.92;23.52;;;8.80;70.50;;;;;;5019221;28;20199;-94
2021/01/02 17:52:01;;;;;;;58.83;24.77;;;8.70;70.80;;;;;;5032194;28;20667;-94
2021/01/02 17:54:29;;;;;;;51.77;23.80;;;8.60;70.70;;;;;;5032556;28;20425;-94
2021/01/02 17:56:55;;;;;;;49.03;24.88;;;8.40;70.80;;;;;;5031236;28;20425;-95
2021/01/02 17:59:22;;;;;;;52.88;24.73;;;8.40;71.30;;;;;;5018578;28;20207;-94
2021/01/02 18:01:51;;;;;;;49.72;24.52;;;8.50;71.60;;;;;;5011776;28;20199;-94
2021/01/02 18:04:17;;;;;;;72.95;26.13;;;8.40;71.70;;;;;;5012733;28;20191;-94
2021/01/02 18:06:43;;;;;;;54.83;25.60;;;8.20;71.90;;;;;;5015414;28;20175;-94
2021/01/02 18:09:09;;;;;;;51.47;24.87;;;8.10;72.50;;;;;;5015122;28;20199;-94
2021/01/02 18:11:40;;;;;;;54.07;24.30;;;8.00;72.70;;;;;;5015908;28;20430;-94
2021/01/02 18:14:13;;;;;;;51.17;25.10;;;8.20;72.90;;;;;;5016831;28;20163;-94
2021/01/02 18:16:39;;;;;;;57.75;26.33;;;8.20;72.70;;;;;;5017810;28;20158;-94
2021/01/02 18:19:07;;;;;;;55.83;25.87;;;8.20;72.80;;;;;;5017010;28;20179;-94
2021/01/02 18:21:33;;;;;;;50.03;25.63;;;8.10;72.60;;;;;;5017263;28;20504;-93
2021/01/02 18:23:59;;;;;;;53.72;26.35;;;8.00;72.90;;;;;;5017934;28;20168;-96
2021/01/02 18:26:30;;;;;;;56.83;27.05;;;8.10;73.30;;;;;;5018890;28;20163;-96
2021/01/02 18:28:57;;;;;;;61.75;29.35;;;8.10;73.80;;;;;;5019276;28;20151;-95
2021/01/02 18:31:24;;;;;;;70.78;28.02;;;8.10;74.00;;;;;;5018840;28;20175;-96
2021/01/02 18:33:53;;;;;;;68.97;29.58;;;8.30;73.90;;;;;;5016899;28;20187;-94
2021/01/02 18:36:25;;;;;;;62.20;30.30;;;8.20;73.30;;;;;;5017094;28;20187;-93
2021/01/02 18:38:52;;;;;;;74.25;30.85;;;8.10;73.60;;;;;;5019340;28;20163;-96
2021/01/02 18:41:25;;;;;;;74.55;27.38;;;7.70;74.30;;;;;;5019015;28;20223;-96
2021/01/02 18:43:51;;;;;;;75.90;29.92;;;7.50;75.40;;;;;;5019125;28;20187;-94
2021/01/02 18:46:41;;;;;;;71.78;28.17;;;7.20;76.30;;;;;;5019133;28;20164;-94
2021/01/02 18:49:09;;;;;;;60.15;28.30;;;7.00;77.30;;;;;;5018184;28;20218;-94
2021/01/02 18:51:37;;;;;;;86.32;32.05;;;7.40;77.70;;;;;;5018572;28;20167;-94
2021/01/02 18:54:12;;;;;;;75.15;31.50;;;7.50;77.20;;;;;;5017502;28;20191;-93
2021/01/02 18:56:38;;;;;;;64.32;32.67;;;7.60;77.10;;;;;;5014101;28;20167;-93
2021/01/02 18:59:05;;;;;;;68.90;31.05;;;7.70;76.80;;;;;;5029761;28;20237;-93
2021/01/02 19:01:39;;;;;;;77.75;33.13;;;7.70;75.90;;;;;;5035498;28;20229;-93
2021/01/02 19:04:05;;;;;;;72.97;31.80;;;7.80;75.70;;;;;;5037312;28;20158;-91
2021/01/02 19:06:31;;;;;;;99.60;30.63;;;7.80;75.60;;;;;;5036265;28;20290;-93
2021/01/02 19:08:57;;;;;;;79.40;34.40;;;7.90;75.60;;;;;;5033451;28;20708;-93
2021/01/02 19:11:24;;;;;;;73.97;32.00;;;8.00;75.40;;;;;;5028428;28;20928;-93
2021/01/02 19:13:54;;;;;;;94.78;35.17;;;7.90;75.00;;;;;;5026001;28;20200;-92
2021/01/02 19:16:26;;;;;;;77.22;31.92;;;7.90;74.60;;;;;;5029895;28;20166;-91
2021/01/02 19:18:53;;;;;;;70.85;33.50;;;7.90;74.80;;;;;;5015978;28;20189;-90
2021/01/02 19:21:19;;;;;;;71.45;31.13;;;7.90;74.50;;;;;;5014477;28;20210;-90
2021/01/02 19:23:46;;;;;;;73.20;31.27;;;8.00;74.50;;;;;;5015108;28;20692;-90
2021/01/02 19:26:24;;;;;;;74.82;31.25;;;8.10;74.50;;;;;;5014290;28;20183;-91
2021/01/02 19:28:50;;;;;;;65.85;31.80;;;8.10;74.20;;;;;;5013630;28;20175;-90
2021/01/02 19:31:31;;;;;;;72.47;32.40;;;8.20;74.00;;;;;;5014814;28;20180;-90
2021/01/02 19:33:57;;;;;;;75.13;29.80;;;8.10;73.60;;;;;;5014884;28;20410;-90
2021/01/02 19:36:33;;;;;;;73.50;31.05;;;8.10;73.70;;;;;;5000902;28;20250;-93
2021/01/02 19:39:17;;;;;;;78.28;32.28;;;8.10;73.80;;;;;;4997692;28;20678;-91
2021/01/02 19:41:49;;;;;;;78.55;31.58;;;8.10;73.90;;;;;;4994324;28;20213;-91
2021/01/02 19:44:18;;;;;;;62.45;29.63;;;8.20;73.70;;;;;;4994457;28;20168;-91
2021/01/02 19:46:44;;;;;;;70.88;31.10;;;8.20;73.60;;;;;;5011128;28;20178;-91
2021/01/02 19:49:11;;;;;;;71.38;30.63;;;8.30;73.50;;;;;;5013064;28;20199;-91
2021/01/02 19:51:37;;;;;;;84.30;35.88;;;8.40;73.30;;;;;;5014762;28;20321;-91
2021/01/02 19:54:03;;;;;;;80.97;33.83;;;8.30;72.50;;;;;;5014961;28;20179;-90
2021/01/02 19:56:29;;;;;;;64.60;27.52;;;8.30;72.40;;;;;;5013510;28;20213;-90
2021/01/02 19:58:57;;;;;;;66.53;29.70;;;8.20;72.30;;;;;;5013169;28;20222;-92
2021/01/02 20:01:23;;;;;;;71.63;30.30;;;8.20;72.70;;;;;;5013101;28;20461;-92
2021/01/02 20:03:49;;;;;;;57.42;28.52;;;8.20;73.10;;;;;;5013194;28;20187;-91
2021/01/02 20:06:20;;;;;;;67.47;28.67;;;8.20;73.20;;;;;;5013520;28;20187;-92
2021/01/02 20:08:46;;;;;;;58.78;27.13;;;8.20;73.20;;;;;;5017257;28;20246;-90
2021/01/02 20:11:14;;;;;;;57.73;27.40;;;8.30;73.20;;;;;;5018162;28;20284;-90
2021/01/02 20:13:40;;;;;;;65.20;28.65;;;8.30;73.80;;;;;;5013302;28;20422;-92
2021/01/02 20:16:07;;;;;;;55.03;28.40;;;8.40;73.00;;;;;;5014416;28;20579;-92
2021/01/02 20:18:33;;;;;;;59.92;27.80;;;8.50;73.00;;;;;;5012918;28;20670;-92
2021/01/02 20:21:00;;;;;;;63.50;26.55;;;8.50;72.70;;;;;;5017615;28;20214;-93
2021/01/02 20:23:26;;;;;;;66.68;30.10;;;8.60;72.30;;;;;;5016984;28;20680;-93
2021/01/02 20:25:53;;;;;;;61.45;28.95;;;8.50;72.00;;;;;;5016373;28;20187;-93
2021/01/02 20:28:18;;;;;;;65.05;27.85;;;8.60;71.70;;;;;;5016290;28;20681;-92